sensor_id;sensor_type;location;lat;lon;timestamp;P1;durP1;ratioP1;P2;durP2;ratioP2
20179;SDS011;10249;48.900;9.090;2024-01-16T00:02:00;12.40;;;11.90;;
20179;SDS011;10249;48.900;9.090;2024-01-16T00:04:30;10.97;;;10.57;;
20179;SDS011;10249;48.900;9.090;2024-01-16T00:06:57;11.10;;;10.70;;
20179;SDS011;10249;48.900;9.090;2024-01-16T00:09:24;11.00;;;10.60;;
20179;SDS011;10249;48.900;9.090;2024-01-16T00:11:51;11.67;;;11.10;;
20179;SDS011;10249;48.900;9.090;2024-01-16T00:14:18;10.83;;;10.43;;
20179;SDS011;10249;48.900;9.090;2024-01-16T00:16:45;10.63;;;10.23;;
20179;SDS011;10249;48.900;9.090;2024-01-16T00:19:13;10.90;;;10.50;;
20179;SDS011;10249;48.900;9.090;2024-01-16T00:21:42;10.80;;;10.40;;
20179;SDS011;10249;48.900;9.090;2024-01-16T00:24:11;10.87;;;10.47;;
20179;SDS011;10249;48.900;9.090;2024-01-16T00:26:38;11.27;;;10.77;;
20179;SDS011;10249;48.900;9.090;2024-01-16T00:29:05;11.17;;;10.67;;
20179;SDS011;10249;48.900;9.090;2024-01-16T00:31:34;10.70;;;10.30;;
20179;SDS011;10249;48.900;9.090;2024-01-16T00:34:01;10.97;;;10.57;;
20179;SDS011;10249;48.900;9.090;2024-01-16T00:36:28;10.60;;;10.20;;
20179;SDS011;10249;48.900;9.090;2024-01-16T00:38:57;10.67;;;10.27;;
20179;SDS011;10249;48.900;9.090;2024-01-16T00:41:24;11.20;;;10.80;;
20179;SDS011;10249;48.900;9.090;2024-01-16T00:43:52;11.00;;;10.60;;
20179;SDS011;10249;48.900;9.090;2024-01-16T00:46:19;10.47;;;10.07;;
20179;SDS011;10249;48.900;9.090;2024-01-16T00:48:46;10.97;;;10.57;;
20179;SDS011;10249;48.900;9.090;2024-01-16T00:51:14;11.53;;;11.03;;
20179;SDS011;10249;48.900;9.090;2024-01-16T00:53:41;11.10;;;10.70;;
20179;SDS011;10249;48.900;9.090;2024-01-16T00:56:10;10.60;;;10.20;;
20179;SDS011;10249;48.900;9.090;2024-01-16T00:58:37;10.60;;;10.20;;
20179;SDS011;10249;48.900;9.090;2024-01-16T01:01:04;10.10;;;9.80;;
20179;SDS011;10249;48.900;9.090;2024-01-16T01:03:31;10.30;;;9.90;;
20179;SDS011;10249;48.900;9.090;2024-01-16T01:05:59;10.80;;;10.40;;
20179;SDS011;10249;48.900;9.090;2024-01-16T01:08:27;9.80;;;9.50;;
20179;SDS011;10249;48.900;9.090;2024-01-16T01:10:54;10.17;;;9.77;;
20179;SDS011;10249;48.900;9.090;2024-01-16T01:13:22;9.90;;;9.60;;
20179;SDS011;10249;48.900;9.090;2024-01-16T01:15:50;9.80;;;9.50;;
20179;SDS011;10249;48.900;9.090;2024-01-16T01:18:17;9.90;;;9.60;;
20179;SDS011;10249;48.900;9.090;2024-01-16T01:20:44;10.37;;;9.97;;
20179;SDS011;10249;48.900;9.090;2024-01-16T01:23:11;10.20;;;9.80;;
20179;SDS011;10249;48.900;9.090;2024-01-16T01:25:38;10.60;;;10.20;;
20179;SDS011;10249;48.900;9.090;2024-01-16T01:28:05;10.77;;;10.27;;
20179;SDS011;10249;48.900;9.090;2024-01-16T01:30:34;10.10;;;9.77;;
20179;SDS011;10249;48.900;9.090;2024-01-16T01:33:01;10.00;;;9.70;;
20179;SDS011;10249;48.900;9.090;2024-01-16T01:35:28;9.90;;;9.60;;
20179;SDS011;10249;48.900;9.090;2024-01-16T01:37:55;10.23;;;9.83;;
20179;SDS011;10249;48.900;9.090;2024-01-16T01:40:22;9.83;;;9.53;;
20179;SDS011;10249;48.900;9.090;2024-01-16T01:42:49;10.40;;;10.00;;
20179;SDS011;10249;48.900;9.090;2024-01-16T01:45:16;9.97;;;9.67;;
20179;SDS011;10249;48.900;9.090;2024-01-16T01:47:45;9.90;;;9.60;;
20179;SDS011;10249;48.900;9.090;2024-01-16T01:50:13;10.10;;;9.70;;
20179;SDS011;10249;48.900;9.090;2024-01-16T01:52:40;10.03;;;9.73;;
20179;SDS011;10249;48.900;9.090;2024-01-16T01:55:08;10.47;;;10.07;;
20179;SDS011;10249;48.900;9.090;2024-01-16T01:57:37;9.50;;;9.20;;
20179;SDS011;10249;48.900;9.090;2024-01-16T02:00:05;9.70;;;9.40;;
20179;SDS011;10249;48.900;9.090;2024-01-16T02:02:33;9.90;;;9.53;;
20179;SDS011;10249;48.900;9.090;2024-01-16T02:05:02;10.20;;;9.80;;
20179;SDS011;10249;48.900;9.090;2024-01-16T02:07:29;10.00;;;9.70;;
20179;SDS011;10249;48.900;9.090;2024-01-16T02:09:58;9.50;;;9.20;;
20179;SDS011;10249;48.900;9.090;2024-01-16T02:12:25;10.10;;;9.80;;
20179;SDS011;10249;48.900;9.090;2024-01-16T02:14:52;9.50;;;9.20;;
20179;SDS011;10249;48.900;9.090;2024-01-16T02:17:19;9.60;;;9.30;;
20179;SDS011;10249;48.900;9.090;2024-01-16T02:19:46;9.53;;;9.23;;
20179;SDS011;10249;48.900;9.090;2024-01-16T02:22:15;9.70;;;9.40;;
20179;SDS011;10249;48.900;9.090;2024-01-16T02:24:46;9.33;;;9.03;;
20179;SDS011;10249;48.900;9.090;2024-01-16T02:27:13;9.60;;;9.30;;
20179;SDS011;10249;48.900;9.090;2024-01-16T02:29:40;9.70;;;9.40;;
20179;SDS011;10249;48.900;9.090;2024-01-16T02:32:08;9.47;;;9.17;;
20179;SDS011;10249;48.900;9.090;2024-01-16T02:34:35;9.50;;;9.20;;
20179;SDS011;10249;48.900;9.090;2024-01-16T02:37:02;9.90;;;9.60;;
20179;SDS011;10249;48.900;9.090;2024-01-16T02:39:29;9.67;;;9.37;;
20179;SDS011;10249;48.900;9.090;2024-01-16T02:41:58;9.80;;;9.50;;
20179;SDS011;10249;48.900;9.090;2024-01-16T02:44:25;9.20;;;8.90;;
20179;SDS011;10249;48.900;9.090;2024-01-16T02:46:53;10.07;;;9.67;;
20179;SDS011;10249;48.900;9.090;2024-01-16T02:49:20;9.60;;;9.30;;
20179;SDS011;10249;48.900;9.090;2024-01-16T02:51:47;9.03;;;8.73;;
20179;SDS011;10249;48.900;9.090;2024-01-16T02:54:14;9.27;;;8.97;;
20179;SDS011;10249;48.900;9.090;2024-01-16T02:56:41;9.40;;;9.10;;
20179;SDS011;10249;48.900;9.090;2024-01-16T02:59:10;9.10;;;8.80;;
20179;SDS011;10249;48.900;9.090;2024-01-16T03:01:37;9.10;;;8.80;;
20179;SDS011;10249;48.900;9.090;2024-01-16T03:04:04;9.40;;;9.10;;
20179;SDS011;10249;48.900;9.090;2024-01-16T03:06:31;9.33;;;9.03;;
20179;SDS011;10249;48.900;9.090;2024-01-16T03:08:59;9.37;;;9.07;;
20179;SDS011;10249;48.900;9.090;2024-01-16T03:11:26;9.20;;;8.90;;
20179;SDS011;10249;48.900;9.090;2024-01-16T03:13:53;9.40;;;9.10;;
20179;SDS011;10249;48.900;9.090;2024-01-16T03:16:22;9.40;;;9.10;;
20179;SDS011;10249;48.900;9.090;2024-01-16T03:18:49;9.07;;;8.77;;
20179;SDS011;10249;48.900;9.090;2024-01-16T03:21:16;9.03;;;8.73;;
20179;SDS011;10249;48.900;9.090;2024-01-16T03:23:43;8.90;;;8.60;;
20179;SDS011;10249;48.900;9.090;2024-01-16T03:26:12;8.83;;;8.53;;
20179;SDS011;10249;48.900;9.090;2024-01-16T03:28:39;8.80;;;8.50;;
20179;SDS011;10249;48.900;9.090;2024-01-16T03:31:06;8.97;;;8.67;;
20179;SDS011;10249;48.900;9.090;2024-01-16T03:33:35;8.97;;;8.67;;
20179;SDS011;10249;48.900;9.090;2024-01-16T03:36:07;9.00;;;8.70;;
20179;SDS011;10249;48.900;9.090;2024-01-16T03:38:35;8.67;;;8.37;;
20179;SDS011;10249;48.900;9.090;2024-01-16T03:41:02;8.80;;;8.50;;
20179;SDS011;10249;48.900;9.090;2024-01-16T03:43:31;8.97;;;8.67;;
20179;SDS011;10249;48.900;9.090;2024-01-16T03:45:58;8.77;;;8.47;;
20179;SDS011;10249;48.900;9.090;2024-01-16T03:48:26;8.83;;;8.53;;
20179;SDS011;10249;48.900;9.090;2024-01-16T03:50:54;9.00;;;8.70;;
20179;SDS011;10249;48.900;9.090;2024-01-16T03:53:22;9.00;;;8.70;;
20179;SDS011;10249;48.900;9.090;2024-01-16T03:55:49;9.13;;;8.83;;
20179;SDS011;10249;48.900;9.090;2024-01-16T03:58:16;9.27;;;8.97;;
20179;SDS011;10249;48.900;9.090;2024-01-16T04:00:43;9.07;;;8.77;;
20179;SDS011;10249;48.900;9.090;2024-01-16T04:03:10;8.73;;;8.43;;
20179;SDS011;10249;48.900;9.090;2024-01-16T04:05:38;8.70;;;8.40;;
20179;SDS011;10249;48.900;9.090;2024-01-16T04:08:06;8.70;;;8.40;;
20179;SDS011;10249;48.900;9.090;2024-01-16T04:10:33;9.17;;;8.87;;
20179;SDS011;10249;48.900;9.090;2024-01-16T04:13:00;8.90;;;8.60;;
20179;SDS011;10249;48.900;9.090;2024-01-16T04:15:28;8.73;;;8.43;;
20179;SDS011;10249;48.900;9.090;2024-01-16T04:17:55;9.13;;;8.83;;
20179;SDS011;10249;48.900;9.090;2024-01-16T04:20:22;9.10;;;8.80;;
20179;SDS011;10249;48.900;9.090;2024-01-16T04:22:49;9.40;;;9.10;;
20179;SDS011;10249;48.900;9.090;2024-01-16T04:25:18;9.23;;;8.93;;
20179;SDS011;10249;48.900;9.090;2024-01-16T04:27:45;8.90;;;8.60;;
20179;SDS011;10249;48.900;9.090;2024-01-16T04:30:12;9.10;;;8.80;;
20179;SDS011;10249;48.900;9.090;2024-01-16T04:32:39;9.23;;;8.93;;
20179;SDS011;10249;48.900;9.090;2024-01-16T04:35:07;10.10;;;9.70;;
20179;SDS011;10249;48.900;9.090;2024-01-16T04:37:34;9.10;;;8.80;;
20179;SDS011;10249;48.900;9.090;2024-01-16T04:40:01;9.50;;;9.20;;
20179;SDS011;10249;48.900;9.090;2024-01-16T04:42:31;9.20;;;8.90;;
20179;SDS011;10249;48.900;9.090;2024-01-16T04:44:59;9.10;;;8.80;;
20179;SDS011;10249;48.900;9.090;2024-01-16T04:47:26;8.93;;;8.63;;
20179;SDS011;10249;48.900;9.090;2024-01-16T04:49:53;8.90;;;8.60;;
20179;SDS011;10249;48.900;9.090;2024-01-16T04:52:20;8.80;;;8.50;;
20179;SDS011;10249;48.900;9.090;2024-01-16T04:54:47;8.70;;;8.40;;
20179;SDS011;10249;48.900;9.090;2024-01-16T04:57:14;8.80;;;8.50;;
20179;SDS011;10249;48.900;9.090;2024-01-16T04:59:43;8.80;;;8.50;;
20179;SDS011;10249;48.900;9.090;2024-01-16T05:02:10;9.27;;;8.97;;
20179;SDS011;10249;48.900;9.090;2024-01-16T05:04:39;9.17;;;8.87;;
20179;SDS011;10249;48.900;9.090;2024-01-16T05:07:06;9.60;;;9.30;;
20179;SDS011;10249;48.900;9.090;2024-01-16T05:09:33;9.20;;;8.90;;
20179;SDS011;10249;48.900;9.090;2024-01-16T05:12:01;9.20;;;8.90;;
20179;SDS011;10249;48.900;9.090;2024-01-16T05:14:28;8.90;;;8.60;;
20179;SDS011;10249;48.900;9.090;2024-01-16T05:16:56;10.40;;;10.00;;
20179;SDS011;10249;48.900;9.090;2024-01-16T05:19:23;9.50;;;9.20;;
20179;SDS011;10249;48.900;9.090;2024-01-16T05:21:50;9.23;;;8.93;;
20179;SDS011;10249;48.900;9.090;2024-01-16T05:24:17;9.30;;;9.00;;
20179;SDS011;10249;48.900;9.090;2024-01-16T05:26:45;9.40;;;9.10;;
20179;SDS011;10249;48.900;9.090;2024-01-16T05:29:12;9.37;;;9.07;;
20179;SDS011;10249;48.900;9.090;2024-01-16T05:31:39;9.50;;;9.20;;
20179;SDS011;10249;48.900;9.090;2024-01-16T05:34:08;9.40;;;9.10;;
20179;SDS011;10249;48.900;9.090;2024-01-16T05:36:35;9.70;;;9.40;;
20179;SDS011;10249;48.900;9.090;2024-01-16T05:39:03;9.63;;;9.33;;
20179;SDS011;10249;48.900;9.090;2024-01-16T05:41:32;9.50;;;9.20;;
20179;SDS011;10249;48.900;9.090;2024-01-16T05:44:00;9.40;;;9.10;;
20179;SDS011;10249;48.900;9.090;2024-01-16T05:46:28;9.43;;;9.13;;
20179;SDS011;10249;48.900;9.090;2024-01-16T05:48:55;9.60;;;9.30;;
20179;SDS011;10249;48.900;9.090;2024-01-16T05:51:23;9.77;;;9.47;;
20179;SDS011;10249;48.900;9.090;2024-01-16T05:53:51;10.03;;;9.73;;
20179;SDS011;10249;48.900;9.090;2024-01-16T05:56:18;9.57;;;9.27;;
20179;SDS011;10249;48.900;9.090;2024-01-16T05:58:45;9.40;;;9.10;;
20179;SDS011;10249;48.900;9.090;2024-01-16T06:01:12;9.40;;;9.10;;
20179;SDS011;10249;48.900;9.090;2024-01-16T06:03:39;9.90;;;9.60;;
20179;SDS011;10249;48.900;9.090;2024-01-16T06:06:06;10.10;;;9.80;;
20179;SDS011;10249;48.900;9.090;2024-01-16T06:08:35;10.10;;;9.80;;
20179;SDS011;10249;48.900;9.090;2024-01-16T06:11:02;10.27;;;9.97;;
20179;SDS011;10249;48.900;9.090;2024-01-16T06:13:29;10.47;;;10.07;;
20179;SDS011;10249;48.900;9.090;2024-01-16T06:15:57;10.13;;;9.83;;
20179;SDS011;10249;48.900;9.090;2024-01-16T06:18:25;10.43;;;10.03;;
20179;SDS011;10249;48.900;9.090;2024-01-16T06:20:52;10.00;;;9.70;;
20179;SDS011;10249;48.900;9.090;2024-01-16T06:23:19;9.90;;;9.60;;
20179;SDS011;10249;48.900;9.090;2024-01-16T06:25:48;10.53;;;10.13;;
20179;SDS011;10249;48.900;9.090;2024-01-16T06:28:15;9.83;;;9.53;;
20179;SDS011;10249;48.900;9.090;2024-01-16T06:30:43;11.33;;;10.93;;
20179;SDS011;10249;48.900;9.090;2024-01-16T06:33:10;10.10;;;9.80;;
20179;SDS011;10249;48.900;9.090;2024-01-16T06:35:38;10.10;;;9.80;;
20179;SDS011;10249;48.900;9.090;2024-01-16T06:38:05;10.00;;;9.70;;
20179;SDS011;10249;48.900;9.090;2024-01-16T06:40:32;10.40;;;10.00;;
20179;SDS011;10249;48.900;9.090;2024-01-16T06:43:00;10.40;;;10.00;;
20179;SDS011;10249;48.900;9.090;2024-01-16T06:45:28;10.77;;;10.37;;
20179;SDS011;10249;48.900;9.090;2024-01-16T06:47:55;9.77;;;9.47;;
20179;SDS011;10249;48.900;9.090;2024-01-16T06:50:22;10.27;;;9.87;;
20179;SDS011;10249;48.900;9.090;2024-01-16T06:52:50;10.60;;;10.20;;
20179;SDS011;10249;48.900;9.090;2024-01-16T06:55:17;10.30;;;9.90;;
20179;SDS011;10249;48.900;9.090;2024-01-16T06:57:44;10.30;;;9.90;;
20179;SDS011;10249;48.900;9.090;2024-01-16T07:00:14;10.50;;;10.10;;
20179;SDS011;10249;48.900;9.090;2024-01-16T07:02:41;10.30;;;10.00;;
20179;SDS011;10249;48.900;9.090;2024-01-16T07:05:08;10.40;;;10.00;;
20179;SDS011;10249;48.900;9.090;2024-01-16T07:07:35;10.00;;;9.70;;
20179;SDS011;10249;48.900;9.090;2024-01-16T07:10:03;10.00;;;9.70;;
20179;SDS011;10249;48.900;9.090;2024-01-16T07:12:33;10.50;;;10.10;;
20179;SDS011;10249;48.900;9.090;2024-01-16T07:15:00;10.90;;;10.50;;
20179;SDS011;10249;48.900;9.090;2024-01-16T07:17:28;10.93;;;10.53;;
20179;SDS011;10249;48.900;9.090;2024-01-16T07:19:55;10.70;;;10.30;;
20179;SDS011;10249;48.900;9.090;2024-01-16T07:22:24;10.60;;;10.20;;
20179;SDS011;10249;48.900;9.090;2024-01-16T07:24:52;11.47;;;11.07;;
20179;SDS011;10249;48.900;9.090;2024-01-16T07:27:19;10.70;;;10.30;;
20179;SDS011;10249;48.900;9.090;2024-01-16T07:29:46;11.37;;;10.97;;
20179;SDS011;10249;48.900;9.090;2024-01-16T07:32:13;10.87;;;10.47;;
20179;SDS011;10249;48.900;9.090;2024-01-16T07:34:41;10.80;;;10.40;;
20179;SDS011;10249;48.900;9.090;2024-01-16T07:37:09;11.00;;;10.60;;
20179;SDS011;10249;48.900;9.090;2024-01-16T07:39:36;11.07;;;10.67;;
20179;SDS011;10249;48.900;9.090;2024-01-16T07:42:03;10.70;;;10.30;;
20179;SDS011;10249;48.900;9.090;2024-01-16T07:44:31;11.00;;;10.60;;
20179;SDS011;10249;48.900;9.090;2024-01-16T07:46:58;10.80;;;10.40;;
20179;SDS011;10249;48.900;9.090;2024-01-16T07:49:25;11.00;;;10.60;;
20179;SDS011;10249;48.900;9.090;2024-01-16T07:51:54;10.90;;;10.50;;
20179;SDS011;10249;48.900;9.090;2024-01-16T07:54:21;10.83;;;10.43;;
20179;SDS011;10249;48.900;9.090;2024-01-16T07:56:49;10.90;;;10.50;;
20179;SDS011;10249;48.900;9.090;2024-01-16T07:59:16;10.90;;;10.50;;
20179;SDS011;10249;48.900;9.090;2024-01-16T08:01:43;10.80;;;10.40;;
20179;SDS011;10249;48.900;9.090;2024-01-16T08:04:11;10.90;;;10.50;;
20179;SDS011;10249;48.900;9.090;2024-01-16T08:06:38;11.23;;;10.83;;
20179;SDS011;10249;48.900;9.090;2024-01-16T08:09:06;12.07;;;11.57;;
20179;SDS011;10249;48.900;9.090;2024-01-16T08:11:33;10.70;;;10.30;;
20179;SDS011;10249;48.900;9.090;2024-01-16T08:14:01;10.90;;;10.50;;
20179;SDS011;10249;48.900;9.090;2024-01-16T08:16:28;12.77;;;12.17;;
20179;SDS011;10249;48.900;9.090;2024-01-16T08:18:55;11.03;;;10.63;;
20179;SDS011;10249;48.900;9.090;2024-01-16T08:21:23;10.30;;;9.90;;
20179;SDS011;10249;48.900;9.090;2024-01-16T08:23:51;10.97;;;10.57;;
20179;SDS011;10249;48.900;9.090;2024-01-16T08:26:20;11.83;;;11.43;;
20179;SDS011;10249;48.900;9.090;2024-01-16T08:28:47;11.30;;;10.90;;
20179;SDS011;10249;48.900;9.090;2024-01-16T08:31:16;11.60;;;11.20;;
20179;SDS011;10249;48.900;9.090;2024-01-16T08:33:43;11.70;;;11.30;;
20179;SDS011;10249;48.900;9.090;2024-01-16T08:36:10;11.53;;;11.13;;
20179;SDS011;10249;48.900;9.090;2024-01-16T08:38:37;11.53;;;11.13;;
20179;SDS011;10249;48.900;9.090;2024-01-16T08:41:04;11.43;;;11.03;;
20179;SDS011;10249;48.900;9.090;2024-01-16T08:43:34;11.50;;;11.10;;
20179;SDS011;10249;48.900;9.090;2024-01-16T08:46:01;12.10;;;11.60;;
20179;SDS011;10249;48.900;9.090;2024-01-16T08:48:28;11.80;;;11.30;;
20179;SDS011;10249;48.900;9.090;2024-01-16T08:50:56;12.10;;;11.60;;
20179;SDS011;10249;48.900;9.090;2024-01-16T08:53:23;11.87;;;11.47;;
20179;SDS011;10249;48.900;9.090;2024-01-16T08:55:51;12.50;;;12.00;;
20179;SDS011;10249;48.900;9.090;2024-01-16T08:58:18;12.30;;;11.80;;
20179;SDS011;10249;48.900;9.090;2024-01-16T09:00:46;12.10;;;11.60;;
20179;SDS011;10249;48.900;9.090;2024-01-16T09:03:13;12.03;;;11.53;;
20179;SDS011;10249;48.900;9.090;2024-01-16T09:05:41;12.30;;;11.80;;
20179;SDS011;10249;48.900;9.090;2024-01-16T09:08:08;11.73;;;11.33;;
20179;SDS011;10249;48.900;9.090;2024-01-16T09:10:35;12.07;;;11.57;;
20179;SDS011;10249;48.900;9.090;2024-01-16T09:13:02;12.40;;;11.90;;
20179;SDS011;10249;48.900;9.090;2024-01-16T09:15:29;12.57;;;12.07;;
20179;SDS011;10249;48.900;9.090;2024-01-16T09:17:58;12.40;;;11.90;;
20179;SDS011;10249;48.900;9.090;2024-01-16T09:20:25;12.60;;;12.07;;
20179;SDS011;10249;48.900;9.090;2024-01-16T09:22:52;12.20;;;11.70;;
20179;SDS011;10249;48.900;9.090;2024-01-16T09:25:19;12.87;;;12.37;;
20179;SDS011;10249;48.900;9.090;2024-01-16T09:27:49;12.60;;;12.10;;
20179;SDS011;10249;48.900;9.090;2024-01-16T09:30:16;12.60;;;12.10;;
20179;SDS011;10249;48.900;9.090;2024-01-16T09:32:43;12.27;;;11.77;;
20179;SDS011;10249;48.900;9.090;2024-01-16T09:35:12;12.40;;;11.90;;
20179;SDS011;10249;48.900;9.090;2024-01-16T09:37:39;12.90;;;12.40;;
20179;SDS011;10249;48.900;9.090;2024-01-16T09:40:07;12.50;;;12.00;;
20179;SDS011;10249;48.900;9.090;2024-01-16T09:42:34;12.60;;;12.10;;
20179;SDS011;10249;48.900;9.090;2024-01-16T09:45:01;13.10;;;12.60;;
20179;SDS011;10249;48.900;9.090;2024-01-16T09:47:29;13.00;;;12.50;;
20179;SDS011;10249;48.900;9.090;2024-01-16T09:49:57;13.10;;;12.60;;
20179;SDS011;10249;48.900;9.090;2024-01-16T09:52:25;13.90;;;13.30;;
20179;SDS011;10249;48.900;9.090;2024-01-16T09:54:53;13.00;;;12.50;;
20179;SDS011;10249;48.900;9.090;2024-01-16T09:57:20;13.10;;;12.60;;
20179;SDS011;10249;48.900;9.090;2024-01-16T09:59:50;13.10;;;12.60;;
20179;SDS011;10249;48.900;9.090;2024-01-16T10:02:18;13.73;;;13.00;;
20179;SDS011;10249;48.900;9.090;2024-01-16T10:04:46;12.97;;;12.47;;
20179;SDS011;10249;48.900;9.090;2024-01-16T10:07:13;13.60;;;13.00;;
20179;SDS011;10249;48.900;9.090;2024-01-16T10:09:42;13.30;;;12.80;;
20179;SDS011;10249;48.900;9.090;2024-01-16T10:12:09;14.07;;;13.47;;
20179;SDS011;10249;48.900;9.090;2024-01-16T10:14:37;14.00;;;13.40;;
20179;SDS011;10249;48.900;9.090;2024-01-16T10:17:06;14.33;;;13.73;;
20179;SDS011;10249;48.900;9.090;2024-01-16T10:19:46;13.20;;;12.70;;
20179;SDS011;10249;48.900;9.090;2024-01-16T10:22:14;13.20;;;12.60;;
20179;SDS011;10249;48.900;9.090;2024-01-16T10:24:47;13.87;;;13.27;;
20179;SDS011;10249;48.900;9.090;2024-01-16T10:27:15;13.80;;;13.20;;
20179;SDS011;10249;48.900;9.090;2024-01-16T10:29:49;13.47;;;12.97;;
20179;SDS011;10249;48.900;9.090;2024-01-16T10:32:27;12.90;;;12.40;;
20179;SDS011;10249;48.900;9.090;2024-01-16T10:35:01;14.00;;;13.40;;
20179;SDS011;10249;48.900;9.090;2024-01-16T10:37:29;13.93;;;13.33;;
20179;SDS011;10249;48.900;9.090;2024-01-16T10:39:57;15.33;;;14.73;;
20179;SDS011;10249;48.900;9.090;2024-01-16T10:42:24;13.20;;;12.70;;
20179;SDS011;10249;48.900;9.090;2024-01-16T10:44:54;13.50;;;13.00;;
20179;SDS011;10249;48.900;9.090;2024-01-16T10:47:22;14.13;;;13.53;;
20179;SDS011;10249;48.900;9.090;2024-01-16T10:49:49;14.00;;;13.40;;
20179;SDS011;10249;48.900;9.090;2024-01-16T10:52:17;14.97;;;14.37;;
20179;SDS011;10249;48.900;9.090;2024-01-16T10:54:44;15.10;;;14.40;;
20179;SDS011;10249;48.900;9.090;2024-01-16T10:57:16;15.00;;;14.40;;
20179;SDS011;10249;48.900;9.090;2024-01-16T10:59:46;15.60;;;14.90;;
20179;SDS011;10249;48.900;9.090;2024-01-16T11:02:16;15.40;;;14.70;;
20179;SDS011;10249;48.900;9.090;2024-01-16T11:04:46;15.53;;;14.83;;
20179;SDS011;10249;48.900;9.090;2024-01-16T11:07:14;15.53;;;14.83;;
20179;SDS011;10249;48.900;9.090;2024-01-16T11:09:41;15.43;;;14.73;;
20179;SDS011;10249;48.900;9.090;2024-01-16T11:12:09;15.70;;;15.00;;
20179;SDS011;10249;48.900;9.090;2024-01-16T11:14:42;16.33;;;15.50;;
20179;SDS011;10249;48.900;9.090;2024-01-16T11:17:11;15.40;;;14.70;;
20179;SDS011;10249;48.900;9.090;2024-01-16T11:19:43;15.50;;;14.77;;
20179;SDS011;10249;48.900;9.090;2024-01-16T11:22:10;18.47;;;17.57;;
20179;SDS011;10249;48.900;9.090;2024-01-16T11:24:37;16.20;;;15.50;;
20179;SDS011;10249;48.900;9.090;2024-01-16T11:27:04;16.70;;;15.90;;
20179;SDS011;10249;48.900;9.090;2024-01-16T11:29:33;16.30;;;15.50;;
20179;SDS011;10249;48.900;9.090;2024-01-16T11:32:03;16.77;;;15.97;;
20179;SDS011;10249;48.900;9.090;2024-01-16T11:37:24;16.60;;;15.80;;
20179;SDS011;10249;48.900;9.090;2024-01-16T11:39:54;16.60;;;15.80;;
20179;SDS011;10249;48.900;9.090;2024-01-16T11:42:25;16.70;;;15.90;;
20179;SDS011;10249;48.900;9.090;2024-01-16T11:44:52;16.37;;;15.57;;
20179;SDS011;10249;48.900;9.090;2024-01-16T11:47:22;17.20;;;16.40;;
20179;SDS011;10249;48.900;9.090;2024-01-16T11:49:50;16.97;;;16.17;;
20179;SDS011;10249;48.900;9.090;2024-01-16T11:52:38;17.20;;;16.40;;
20179;SDS011;10249;48.900;9.090;2024-01-16T11:57:53;15.87;;;15.07;;
20179;SDS011;10249;48.900;9.090;2024-01-16T12:00:27;15.90;;;15.10;;
20179;SDS011;10249;48.900;9.090;2024-01-16T12:02:56;16.00;;;15.20;;
20179;SDS011;10249;48.900;9.090;2024-01-16T12:05:23;16.50;;;15.70;;
20179;SDS011;10249;48.900;9.090;2024-01-16T12:07:51;16.70;;;15.90;;
20179;SDS011;10249;48.900;9.090;2024-01-16T12:10:20;16.90;;;16.10;;
20179;SDS011;10249;48.900;9.090;2024-01-16T12:12:48;16.60;;;15.80;;
20179;SDS011;10249;48.900;9.090;2024-01-16T12:15:16;16.40;;;15.60;;
20179;SDS011;10249;48.900;9.090;2024-01-16T12:17:56;16.43;;;15.63;;
20179;SDS011;10249;48.900;9.090;2024-01-16T12:20:26;16.50;;;15.70;;
20179;SDS011;10249;48.900;9.090;2024-01-16T12:22:54;17.10;;;16.30;;
20179;SDS011;10249;48.900;9.090;2024-01-16T12:25:21;16.63;;;15.83;;
20179;SDS011;10249;48.900;9.090;2024-01-16T12:27:54;16.60;;;15.80;;
20179;SDS011;10249;48.900;9.090;2024-01-16T12:30:21;17.23;;;16.43;;
20179;SDS011;10249;48.900;9.090;2024-01-16T12:32:48;17.07;;;16.27;;
20179;SDS011;10249;48.900;9.090;2024-01-16T12:35:20;16.87;;;16.07;;
20179;SDS011;10249;48.900;9.090;2024-01-16T12:40:35;16.50;;;15.70;;
20179;SDS011;10249;48.900;9.090;2024-01-16T12:43:03;17.00;;;16.20;;
20179;SDS011;10249;48.900;9.090;2024-01-16T12:45:31;16.83;;;16.03;;
20179;SDS011;10249;48.900;9.090;2024-01-16T12:47:59;16.60;;;15.80;;
20179;SDS011;10249;48.900;9.090;2024-01-16T12:50:30;16.90;;;16.10;;
20179;SDS011;10249;48.900;9.090;2024-01-16T12:53:00;16.57;;;15.77;;
20179;SDS011;10249;48.900;9.090;2024-01-16T12:55:28;17.00;;;16.20;;
20179;SDS011;10249;48.900;9.090;2024-01-16T12:58:15;16.83;;;16.03;;
20179;SDS011;10249;48.900;9.090;2024-01-16T13:00:42;17.10;;;16.20;;
20179;SDS011;10249;48.900;9.090;2024-01-16T13:03:14;16.77;;;15.97;;
20179;SDS011;10249;48.900;9.090;2024-01-16T13:05:44;16.57;;;15.77;;
20179;SDS011;10249;48.900;9.090;2024-01-16T13:08:17;16.63;;;15.83;;
20179;SDS011;10249;48.900;9.090;2024-01-16T13:10:45;17.07;;;16.27;;
20179;SDS011;10249;48.900;9.090;2024-01-16T13:13:13;16.90;;;16.10;;
20179;SDS011;10249;48.900;9.090;2024-01-16T13:15:41;16.93;;;16.13;;
20179;SDS011;10249;48.900;9.090;2024-01-16T13:18:17;17.10;;;16.30;;
20179;SDS011;10249;48.900;9.090;2024-01-16T13:20:47;16.40;;;15.60;;
20179;SDS011;10249;48.900;9.090;2024-01-16T13:23:14;16.47;;;15.67;;
20179;SDS011;10249;48.900;9.090;2024-01-16T13:25:42;16.60;;;15.80;;
20179;SDS011;10249;48.900;9.090;2024-01-16T13:28:10;16.47;;;15.67;;
20179;SDS011;10249;48.900;9.090;2024-01-16T13:30:37;16.80;;;15.97;;
20179;SDS011;10249;48.900;9.090;2024-01-16T13:33:04;16.60;;;15.80;;
20179;SDS011;10249;48.900;9.090;2024-01-16T13:35:31;16.60;;;15.80;;
20179;SDS011;10249;48.900;9.090;2024-01-16T13:38:00;17.03;;;16.17;;
20179;SDS011;10249;48.900;9.090;2024-01-16T13:40:28;16.40;;;15.60;;
20179;SDS011;10249;48.900;9.090;2024-01-16T13:42:56;16.13;;;15.33;;
20179;SDS011;10249;48.900;9.090;2024-01-16T13:45:23;16.60;;;15.80;;
20179;SDS011;10249;48.900;9.090;2024-01-16T13:47:50;16.83;;;15.97;;
20179;SDS011;10249;48.900;9.090;2024-01-16T13:50:17;16.40;;;15.60;;
20179;SDS011;10249;48.900;9.090;2024-01-16T13:52:44;16.87;;;16.07;;
20179;SDS011;10249;48.900;9.090;2024-01-16T13:55:12;16.97;;;16.17;;
20179;SDS011;10249;48.900;9.090;2024-01-16T13:57:40;16.47;;;15.67;;
20179;SDS011;10249;48.900;9.090;2024-01-16T14:00:08;16.63;;;15.77;;
20179;SDS011;10249;48.900;9.090;2024-01-16T14:02:38;16.20;;;15.40;;
20179;SDS011;10249;48.900;9.090;2024-01-16T14:05:06;17.07;;;16.17;;
20179;SDS011;10249;48.900;9.090;2024-01-16T14:07:35;16.70;;;15.90;;
20179;SDS011;10249;48.900;9.090;2024-01-16T14:10:03;16.70;;;15.90;;
20179;SDS011;10249;48.900;9.090;2024-01-16T14:12:32;17.33;;;16.30;;
20179;SDS011;10249;48.900;9.090;2024-01-16T14:15:00;16.70;;;15.90;;
20179;SDS011;10249;48.900;9.090;2024-01-16T14:17:29;16.93;;;16.03;;
20179;SDS011;10249;48.900;9.090;2024-01-16T14:19:56;16.90;;;16.10;;
20179;SDS011;10249;48.900;9.090;2024-01-16T14:22:24;16.97;;;16.17;;
20179;SDS011;10249;48.900;9.090;2024-01-16T14:24:52;16.53;;;15.73;;
20179;SDS011;10249;48.900;9.090;2024-01-16T14:27:19;16.77;;;15.97;;
20179;SDS011;10249;48.900;9.090;2024-01-16T14:29:48;16.90;;;16.03;;
20179;SDS011;10249;48.900;9.090;2024-01-16T14:32:15;16.70;;;15.90;;
20179;SDS011;10249;48.900;9.090;2024-01-16T14:34:42;17.47;;;16.57;;
20179;SDS011;10249;48.900;9.090;2024-01-16T14:37:09;17.10;;;16.30;;
20179;SDS011;10249;48.900;9.090;2024-01-16T14:39:36;16.70;;;15.90;;
20179;SDS011;10249;48.900;9.090;2024-01-16T14:42:04;17.40;;;16.50;;
20179;SDS011;10249;48.900;9.090;2024-01-16T14:44:32;18.33;;;17.40;;